createdAt,value
2018-06-04T05:19:07.590Z,58.64
2018-06-04T05:24:02.171Z,60.29
2018-06-04T05:28:56.740Z,60.14
2018-06-04T05:33:51.471Z,60.30
2018-06-04T05:38:46.139Z,59.79
2018-06-04T05:43:40.787Z,59.56
2018-06-04T05:48:35.333Z,61.06
2018-06-04T05:53:36.633Z,60.91
2018-06-04T05:58:31.146Z,61.60
2018-06-04T06:03:25.698Z,63.49
2018-06-04T06:08:20.268Z,63.86
2018-06-04T06:13:14.810Z,64.90
2018-06-04T06:18:09.410Z,63.11
2018-06-04T06:23:04.011Z,63.93
2018-06-04T06:27:58.606Z,63.18
2018-06-04T06:32:53.160Z,63.08
2018-06-04T06:37:47.734Z,62.88
2018-06-04T06:42:42.292Z,63.37
2018-06-04T06:47:36.827Z,61.75
2018-06-04T06:52:31.417Z,59.44
2018-06-04T06:57:25.917Z,59.62
2018-06-04T07:02:20.752Z,57.03
2018-06-04T07:07:15.306Z,58.39
2018-06-04T07:12:09.853Z,56.37
2018-06-04T07:17:04.425Z,55.53
2018-06-04T07:21:58.977Z,55.32
2018-06-04T07:26:53.233Z,55.77
2018-06-04T07:31:47.780Z,55.09
2018-06-04T07:36:42.327Z,52.13
2018-06-04T07:41:36.926Z,53.06
2018-06-04T07:46:31.587Z,53.32
2018-06-04T07:51:26.166Z,51.71
2018-06-04T07:56:20.701Z,54.07
2018-06-04T08:01:15.280Z,48.72
2018-06-04T08:06:09.883Z,48.76
2018-06-04T08:11:04.471Z,50.06
2018-06-04T08:15:59.055Z,49.22
2018-06-04T08:20:53.607Z,49.77
2018-06-04T08:25:48.150Z,47.65
2018-06-04T08:30:42.724Z,47.96
2018-06-04T08:35:37.280Z,46.21
2018-06-04T08:40:31.827Z,48.69
2018-06-04T08:45:26.361Z,49.77
2018-06-04T08:50:20.926Z,49.16
2018-06-04T09:00:12.339Z,47.66
2018-06-04T09:05:06.923Z,46.71
2018-06-04T09:10:01.474Z,48.05
2018-06-04T09:14:56.060Z,44.02
2018-06-04T09:19:50.642Z,46.34
2018-06-04T09:24:45.219Z,47.20
2018-06-04T09:29:39.820Z,45.51
2018-06-04T09:34:35.418Z,42.55
2018-06-04T09:39:30.011Z,44.43
2018-06-04T09:44:24.645Z,42.14
2018-06-04T09:49:19.183Z,42.78
2018-06-04T09:54:13.839Z,43.37
2018-06-04T09:59:08.394Z,43.94
2018-06-04T10:04:03.094Z,42.67
2018-06-04T10:08:57.632Z,43.98
2018-06-04T10:13:52.203Z,42.83
2018-06-04T10:18:47.354Z,45.18
2018-06-04T10:23:41.964Z,44.64
2018-06-04T10:28:36.491Z,43.40
2018-06-04T10:33:31.054Z,41.82
2018-06-04T10:38:25.613Z,44.79
2018-06-04T10:43:20.154Z,43.84
2018-06-04T10:48:14.705Z,44.81
2018-06-04T10:53:09.283Z,41.58
2018-06-04T10:58:03.859Z,42.94
2018-06-04T11:02:58.404Z,43.75
2018-06-04T11:07:52.978Z,42.63
2018-06-04T11:12:47.587Z,43.93
2018-06-04T11:17:42.383Z,42.79
2018-06-04T11:22:36.943Z,43.23
2018-06-04T11:27:31.495Z,40.63
2018-06-04T11:32:26.088Z,41.46
2018-06-04T11:37:20.663Z,40.18
2018-06-04T11:42:15.240Z,40.16
2018-06-04T11:47:09.796Z,41.02
2018-06-04T11:52:04.423Z,40.82
2018-06-04T11:56:59.003Z,38.54
2018-06-04T12:01:53.585Z,40.35
2018-06-04T12:06:48.145Z,41.40
2018-06-04T12:11:42.707Z,39.92
2018-06-04T12:16:37.277Z,38.28
2018-06-04T12:21:31.862Z,38.67
2018-06-04T12:26:26.425Z,36.76
2018-06-04T12:31:20.995Z,39.19
2018-06-04T12:36:15.567Z,39.99
2018-06-04T12:41:10.226Z,38.27
2018-06-04T12:46:04.916Z,39.63
2018-06-04T12:50:59.510Z,38.65
2018-06-04T12:55:54.069Z,39.07
2018-06-04T13:00:48.594Z,38.59
2018-06-04T13:05:43.204Z,39.07
2018-06-04T13:10:37.780Z,39.47
2018-06-04T13:15:32.418Z,36.20
2018-06-04T13:20:27.033Z,37.14
2018-06-04T13:25:21.637Z,38.80
2018-06-04T13:30:16.215Z,38.26
2018-06-04T13:35:10.786Z,39.11
2018-06-04T13:40:05.038Z,40.24
2018-06-04T13:44:59.632Z,36.80
2018-06-04T13:49:54.215Z,37.30
2018-06-04T13:54:48.462Z,35.95
2018-06-04T13:59:43.048Z,34.81
2018-06-04T14:04:37.579Z,34.57
2018-06-04T14:09:32.163Z,34.57
2018-06-04T14:14:26.785Z,36.02
2018-06-04T14:19:21.346Z,34.34
2018-06-04T14:24:15.635Z,34.23
2018-06-04T14:29:10.182Z,32.83
2018-06-04T14:34:04.785Z,33.78
2018-06-04T14:38:59.437Z,36.76
2018-06-04T14:43:53.999Z,34.72
2018-06-04T14:48:48.571Z,35.93
2018-06-04T14:53:42.861Z,35.03
2018-06-04T14:58:37.379Z,35.65
2018-06-04T15:03:31.942Z,35.21
2018-06-04T15:08:26.498Z,33.88
2018-06-04T15:13:21.074Z,36.29
2018-06-04T15:18:15.680Z,36.50
2018-06-04T15:23:10.218Z,34.28
2018-06-04T15:28:04.487Z,35.05
2018-06-04T15:32:59.086Z,34.76
2018-06-04T15:37:53.754Z,35.18
2018-06-04T15:42:48.311Z,35.00
2018-06-04T15:47:42.874Z,36.42
2018-06-04T15:52:37.455Z,35.17
2018-06-04T15:57:32.021Z,36.06
2018-06-04T16:02:26.596Z,36.13
2018-06-04T16:07:21.163Z,35.89
2018-06-04T16:12:15.757Z,36.65
2018-06-04T16:17:10.314Z,42.31
2018-06-04T16:22:04.913Z,42.32
2018-06-04T16:26:59.398Z,44.19
2018-06-04T16:31:53.951Z,43.63
2018-06-04T16:36:48.555Z,45.01
2018-06-04T16:41:43.137Z,47.02
2018-06-04T16:46:37.681Z,47.00
2018-06-04T16:51:32.259Z,46.20
2018-06-04T16:56:26.891Z,45.63
2018-06-04T17:01:21.495Z,44.28
2018-06-04T17:06:16.081Z,45.68
2018-06-04T17:11:10.619Z,43.79
2018-06-04T17:16:05.867Z,43.55
2018-06-04T17:21:00.424Z,42.53
2018-06-04T17:25:54.979Z,41.89
2018-06-04T17:30:49.600Z,42.59
2018-06-04T17:35:44.152Z,45.96
2018-06-04T17:40:38.710Z,47.43
2018-06-04T17:45:33.274Z,47.76
2018-06-04T17:50:27.839Z,48.28
2018-06-04T17:55:22.419Z,48.38
2018-06-04T18:00:17.026Z,49.02
2018-06-04T18:05:11.607Z,48.36
2018-06-04T18:10:06.276Z,46.52
2018-06-04T18:15:00.878Z,47.26
2018-06-04T18:19:55.524Z,47.35
2018-06-04T18:24:50.121Z,47.58
2018-06-04T18:29:44.722Z,47.79
2018-06-04T18:34:39.330Z,47.56
2018-06-04T18:39:33.955Z,47.03
2018-06-04T18:44:28.574Z,46.75
2018-06-04T18:49:23.071Z,52.55
2018-06-04T18:54:17.719Z,59.60
2018-06-04T18:59:12.305Z,61.31
2018-06-04T19:04:06.937Z,61.32
2018-06-04T19:09:01.623Z,60.80
2018-06-04T19:13:56.099Z,60.78
2018-06-04T19:18:50.720Z,57.93
2018-06-04T19:23:45.316Z,57.96
2018-06-04T19:28:39.931Z,58.04
2018-06-04T19:33:34.548Z,57.57
2018-06-04T19:38:29.167Z,57.61
2018-06-04T19:43:23.738Z,55.77
2018-06-04T19:48:18.357Z,58.62
2018-06-04T19:53:12.926Z,59.86
2018-06-04T19:58:07.514Z,57.22
2018-06-04T20:03:02.165Z,56.94
2018-06-04T20:07:56.708Z,58.82
2018-06-04T20:12:51.292Z,56.41
2018-06-04T20:17:45.819Z,56.32
2018-06-04T20:22:40.414Z,58.37
2018-06-04T20:27:34.978Z,58.22
2018-06-04T20:32:29.560Z,58.52
2018-06-04T20:37:24.117Z,58.31
2018-06-04T20:42:18.729Z,59.42
2018-06-04T20:47:13.347Z,58.71
2018-06-04T20:52:08.036Z,59.73
2018-06-04T20:57:02.622Z,57.65
2018-06-04T21:01:57.218Z,59.38
2018-06-04T21:06:51.794Z,62.90
2018-06-04T21:11:46.404Z,65.77
2018-06-04T21:16:40.971Z,66.60
2018-06-04T21:21:35.512Z,67.79
2018-06-04T21:26:30.277Z,66.74
2018-06-04T21:31:24.840Z,67.05
2018-06-04T21:36:19.406Z,67.34
2018-06-04T21:41:14.000Z,68.40
2018-06-04T21:46:08.225Z,67.06
2018-06-04T21:51:02.796Z,67.41
2018-06-04T21:55:57.062Z,66.79
2018-06-04T22:00:51.769Z,66.03
2018-06-04T22:05:46.346Z,66.05
2018-06-04T22:10:40.949Z,66.72
2018-06-04T22:15:35.560Z,67.13
2018-06-04T22:20:30.163Z,67.72
2018-06-04T22:25:24.747Z,67.61
2018-06-04T22:30:19.302Z,66.99
2018-06-04T22:35:13.838Z,68.79
2018-06-04T22:40:08.407Z,67.20
2018-06-04T22:45:02.970Z,67.63
2018-06-04T22:49:57.550Z,68.57
2018-06-04T22:54:52.140Z,68.97
2018-06-04T22:59:46.697Z,68.28
2018-06-04T23:04:41.241Z,68.42
2018-06-04T23:09:35.778Z,68.92
2018-06-04T23:14:30.298Z,68.53
2018-06-04T23:19:24.876Z,69.75
2018-06-04T23:24:19.453Z,69.88
2018-06-04T23:29:13.958Z,69.64
2018-06-04T23:34:08.514Z,69.59
2018-06-04T23:39:03.124Z,69.69
2018-06-04T23:43:57.731Z,69.50
2018-06-04T23:48:52.253Z,70.05
2018-06-04T23:53:46.805Z,69.56
2018-06-04T23:58:41.314Z,70.90
